ěÝzenÝ letovÚho provozu ╚eskÚ republiky
Letiste: LKNA Aktualizace: 24.09.2023 03:59:38  UTC
 METAR LKNA 24.09. 04:00 ...
METAR LKNA 240400Z 32008KT CAVOK 10/07 Q1023 NOSIG RMK BLU BLU=
 TAF LKNA 23.09. 23:00 COR
TAF COR LKNA 232300Z 2400/2500 30008KT CAVOK      BECMG 2404/2406 33014G24KT      TEMPO 2408/2415 BKN030      BECMG 2410/2412 01014G24KT      BECMG 2419/2421 02008KT BKN030=